Decoded Metar for LFLP (ANNECY in FRANCE) (IATA:NCY) | Meteo·Mobile Aviation Weather
aviador You're here:

LFLP Decoded Metar

ANNECY in FRANCE
Report Time2018-08-21 07:30:00
UTC Time2018-08-21 07:51:31
Flight Rules vfr VFR
WindVRB at 01 kt
Visibility9999 m
Phenomena:N/A
Clouds:N/A
Expected CloudBase > 3,200 ft AGL from Temp-Dew spread
CeilingNone
Temp22°C (ISA +10)
Dew Point14°C (61% RH)
QNH1020 hPa
Density Alt2,667 ft
Elevation1,519 ft
Report Wrong Elevation
Raw Report
METAR LFLP 210730Z AUTO VRB01KT CAVOK 22/14 Q1020 NOSIG=

Extra information for LFLP:More info

Metar Taf Metar & Taf Last 4 Metars F.Rules Stats Wind Profile Meteogram Temp Stats Airport Information Weather charts Add Link Nearby VenuesMetar ALERT Operation Metar Decoded Social comments